createdAt,value
2018-05-03T00:01:02.145Z,14.20
2018-05-03T00:03:29.281Z,14.10
2018-05-03T00:05:55.691Z,14.10
2018-05-03T00:08:22.063Z,14.10
2018-05-03T00:10:48.456Z,14.00
2018-05-03T00:13:14.828Z,13.90
2018-05-03T00:15:41.917Z,13.80
2018-05-03T00:18:08.271Z,13.80
2018-05-03T00:20:34.671Z,13.90
2018-05-03T00:23:01.043Z,13.90
2018-05-03T00:25:28.160Z,13.90
2018-05-03T00:27:54.517Z,13.90
2018-05-03T00:30:20.889Z,13.90
2018-05-03T00:32:47.324Z,13.90
2018-05-03T00:35:13.734Z,13.80
2018-05-03T00:37:40.881Z,13.80
2018-05-03T00:40:07.251Z,13.70
2018-05-03T00:42:33.608Z,13.80
2018-05-03T00:45:00.792Z,13.70
2018-05-03T00:47:27.905Z,13.80
2018-05-03T00:49:54.322Z,13.80
2018-05-03T00:52:20.701Z,13.80
2018-05-03T00:54:48.819Z,13.70
2018-05-03T00:57:15.179Z,13.70
2018-05-03T00:59:41.560Z,13.60
2018-05-03T01:02:07.996Z,13.70
2018-05-03T01:04:34.407Z,13.70
2018-05-03T01:07:01.529Z,13.70
2018-05-03T01:09:27.915Z,13.70
2018-05-03T01:11:54.300Z,13.80
2018-05-03T01:14:21.495Z,13.60
2018-05-03T01:16:47.871Z,13.50
2018-05-03T01:19:14.262Z,13.60
2018-05-03T01:21:40.683Z,13.60
2018-05-03T01:24:07.030Z,13.60
2018-05-03T01:26:33.460Z,13.70
2018-05-03T01:28:59.862Z,13.70
2018-05-03T01:31:26.221Z,13.80
2018-05-03T01:33:52.603Z,13.90
2018-05-03T01:36:26.685Z,13.90
2018-05-03T01:38:53.040Z,13.80
2018-05-03T01:41:20.175Z,13.60
2018-05-03T01:43:46.553Z,13.60
2018-05-03T01:46:12.935Z,13.60
2018-05-03T01:48:39.288Z,13.60
2018-05-03T01:51:06.423Z,13.60
2018-05-03T01:53:32.779Z,13.60
2018-05-03T01:55:59.159Z,13.70
2018-05-03T01:58:25.538Z,13.60
2018-05-03T02:00:51.944Z,13.50
2018-05-03T02:03:18.308Z,13.40
2018-05-03T02:05:44.703Z,13.40
2018-05-03T02:08:11.105Z,13.50
2018-05-03T02:10:38.271Z,13.40
2018-05-03T02:13:04.692Z,13.40
2018-05-03T02:15:31.071Z,13.40
2018-05-03T02:17:57.451Z,13.40
2018-05-03T02:20:23.816Z,13.40
2018-05-03T02:22:50.939Z,13.30
2018-05-03T02:25:17.315Z,13.30
2018-05-03T02:27:43.703Z,13.30
2018-05-03T02:30:10.057Z,13.20
2018-05-03T02:32:37.196Z,13.30
2018-05-03T02:35:03.597Z,13.30
2018-05-03T02:37:29.962Z,13.30
2018-05-03T02:40:03.981Z,13.20
2018-05-03T02:42:30.367Z,13.20
2018-05-03T02:44:56.786Z,13.10
2018-05-03T02:47:23.152Z,13.00
2018-05-03T02:49:49.574Z,12.90
2018-05-03T02:52:15.945Z,12.90
2018-05-03T02:54:42.355Z,12.90
2018-05-03T02:57:28.059Z,13.00
2018-05-03T03:03:41.068Z,13.00
2018-05-03T03:06:32.153Z,13.00
2018-05-03T03:16:26.348Z,13.20
2018-05-03T03:19:17.342Z,13.20
2018-05-03T03:22:08.630Z,13.00
2018-05-03T03:25:07.740Z,12.90
2018-05-03T03:27:56.613Z,12.90
2018-05-03T03:30:47.682Z,12.90
2018-05-03T03:33:32.629Z,13.10
2018-05-03T03:36:18.251Z,13.00
2018-05-03T03:39:03.894Z,12.90
2018-05-03T03:41:51.032Z,12.90
2018-05-03T03:44:35.881Z,12.90
2018-05-03T03:47:02.242Z,12.80
2018-05-03T03:49:29.341Z,12.80
2018-05-03T03:51:55.713Z,12.80
2018-05-03T03:54:22.127Z,12.80
2018-05-03T03:56:48.504Z,12.90
2018-05-03T03:59:14.886Z,12.90
2018-05-03T04:01:42.353Z,12.90
2018-05-03T04:04:09.500Z,12.80
2018-05-03T04:06:35.913Z,12.80
2018-05-03T04:09:02.344Z,12.80
2018-05-03T04:11:28.723Z,12.90
2018-05-03T04:13:55.089Z,12.80
2018-05-03T04:16:21.471Z,12.80
2018-05-03T04:19:06.933Z,12.80
2018-05-03T04:21:54.036Z,12.80
2018-05-03T04:24:39.062Z,12.90
2018-05-03T04:27:05.450Z,13.00
2018-05-03T04:29:31.796Z,13.00
2018-05-03T04:31:58.917Z,13.00
2018-05-03T04:34:25.270Z,13.00
2018-05-03T04:36:52.399Z,13.00
2018-05-03T04:39:18.777Z,13.00
2018-05-03T04:41:45.171Z,12.90
2018-05-03T04:44:11.521Z,13.00
2018-05-03T04:46:38.668Z,13.00
2018-05-03T04:49:05.961Z,12.90
2018-05-03T04:51:32.329Z,12.90
2018-05-03T04:53:59.459Z,12.90
2018-05-03T04:56:25.949Z,12.80
2018-05-03T04:58:52.329Z,13.00
2018-05-03T05:01:19.417Z,13.00
2018-05-03T05:03:45.896Z,13.00
2018-05-03T05:06:12.291Z,13.10
2018-05-03T05:08:38.685Z,13.10
2018-05-03T05:11:05.036Z,13.20
2018-05-03T05:13:31.482Z,13.10
2018-05-03T05:15:57.956Z,13.20
2018-05-03T05:18:24.340Z,13.10
2018-05-03T05:20:50.751Z,13.20
2018-05-03T05:23:17.876Z,13.00
2018-05-03T05:25:44.320Z,13.00
2018-05-03T05:28:10.710Z,13.00
2018-05-03T05:30:37.180Z,13.20
2018-05-03T05:33:03.508Z,13.20
2018-05-03T05:35:30.679Z,13.40
2018-05-03T05:37:57.802Z,13.30
2018-05-03T05:40:24.229Z,13.30
2018-05-03T05:42:50.664Z,13.20
2018-05-03T05:45:17.080Z,13.20
2018-05-03T05:47:43.627Z,13.20
2018-05-03T05:50:10.727Z,13.20
2018-05-03T05:52:38.060Z,13.20
2018-05-03T05:55:04.437Z,13.20
2018-05-03T05:57:30.805Z,13.20
2018-05-03T05:59:57.249Z,13.30
2018-05-03T06:02:24.409Z,13.30
2018-05-03T06:04:50.844Z,13.20
2018-05-03T06:07:17.313Z,13.20
2018-05-03T06:09:43.721Z,13.40
2018-05-03T06:12:10.209Z,13.50
2018-05-03T06:14:36.610Z,13.40
2018-05-03T06:17:03.160Z,13.40
2018-05-03T06:19:29.538Z,13.30
2018-05-03T06:21:55.894Z,13.30
2018-05-03T06:24:22.339Z,13.10
2018-05-03T06:26:48.731Z,13.10
2018-05-03T06:29:15.122Z,13.10
2018-05-03T06:31:41.532Z,13.20
2018-05-03T06:34:07.944Z,13.30
2018-05-03T06:36:34.350Z,13.40
2018-05-03T06:39:00.718Z,13.40
2018-05-03T06:41:27.099Z,13.40
2018-05-03T06:43:54.236Z,13.50
2018-05-03T06:46:21.394Z,13.40
2018-05-03T06:48:48.524Z,13.40
2018-05-03T06:51:14.975Z,13.30
2018-05-03T06:53:42.162Z,13.30
2018-05-03T06:56:08.536Z,13.30
2018-05-03T06:58:35.686Z,13.10
2018-05-03T07:01:02.049Z,13.10
2018-05-03T07:03:28.440Z,13.20
2018-05-03T07:05:55.582Z,13.10
2018-05-03T07:08:21.996Z,13.00
2018-05-03T07:10:48.359Z,13.00
2018-05-03T07:13:15.554Z,13.10
2018-05-03T07:15:42.041Z,13.10
2018-05-03T07:18:08.406Z,13.20
2018-05-03T07:20:34.815Z,13.30
2018-05-03T07:23:01.205Z,13.50
2018-05-03T07:25:27.728Z,13.60
2018-05-03T07:27:54.122Z,13.60
2018-05-03T07:30:21.445Z,13.60
2018-05-03T07:32:49.149Z,13.80
2018-05-03T07:35:15.554Z,13.80
2018-05-03T07:37:41.993Z,13.70
2018-05-03T07:40:08.453Z,13.80
2018-05-03T07:42:35.115Z,13.60
2018-05-03T07:45:01.580Z,13.60
2018-05-03T07:47:27.987Z,13.70
2018-05-03T07:49:54.478Z,13.70
2018-05-03T07:52:20.875Z,13.90
2018-05-03T07:54:47.997Z,14.20
2018-05-03T07:57:14.400Z,14.10
2018-05-03T07:59:40.792Z,14.20
2018-05-03T08:02:07.251Z,14.20
2018-05-03T08:04:33.644Z,14.20
2018-05-03T08:07:00.849Z,13.90
2018-05-03T08:09:27.240Z,13.90
2018-05-03T08:11:53.686Z,14.00
2018-05-03T08:14:20.068Z,14.00
2018-05-03T08:16:46.443Z,13.80
2018-05-03T08:19:12.832Z,13.90
2018-05-03T08:21:39.236Z,14.00
2018-05-03T08:24:06.371Z,14.00
2018-05-03T08:26:32.728Z,14.00
2018-05-03T08:28:59.270Z,14.00
2018-05-03T08:31:25.727Z,14.00
2018-05-03T08:33:52.860Z,14.20
2018-05-03T08:36:19.221Z,14.30
2018-05-03T08:38:45.587Z,14.00
2018-05-03T08:41:12.035Z,13.80
2018-05-03T08:43:38.432Z,14.00
2018-05-03T08:46:04.901Z,14.00
2018-05-03T08:48:32.049Z,14.30
2018-05-03T08:50:58.457Z,14.30
2018-05-03T08:53:24.882Z,14.40
2018-05-03T08:55:51.341Z,14.30
2018-05-03T08:58:17.761Z,14.40
2018-05-03T09:00:44.193Z,14.50
2018-05-03T09:03:10.585Z,14.70
2018-05-03T09:05:36.980Z,14.80
2018-05-03T09:08:03.364Z,14.70
2018-05-03T09:10:29.716Z,14.60
2018-05-03T09:12:56.133Z,14.40
2018-05-03T09:15:22.496Z,14.40
2018-05-03T09:17:48.877Z,14.60
2018-05-03T09:20:15.303Z,14.40
2018-05-03T09:22:41.706Z,14.40
2018-05-03T09:25:08.871Z,14.40
2018-05-03T09:27:35.272Z,14.40
2018-05-03T09:30:01.658Z,14.40
2018-05-03T09:32:28.141Z,14.50
2018-05-03T09:34:54.527Z,14.50
2018-05-03T09:37:20.959Z,14.70
2018-05-03T09:39:47.380Z,14.80
2018-05-03T09:42:13.784Z,14.80
2018-05-03T09:44:40.284Z,14.70
2018-05-03T09:47:06.627Z,14.70
2018-05-03T09:49:33.042Z,14.80
2018-05-03T09:51:59.452Z,14.90
2018-05-03T09:54:25.869Z,15.00
2018-05-03T09:56:52.278Z,15.10
2018-05-03T09:59:19.340Z,14.70
2018-05-03T10:01:45.725Z,14.80
2018-05-03T10:04:12.116Z,14.60
2018-05-03T10:06:38.544Z,14.80
2018-05-03T10:09:04.972Z,14.90
2018-05-03T10:11:31.432Z,14.80
2018-05-03T10:13:57.839Z,14.70
2018-05-03T10:16:24.242Z,14.80
2018-05-03T10:18:50.638Z,14.60
2018-05-03T10:21:17.045Z,14.70
2018-05-03T10:23:43.435Z,14.80
2018-05-03T10:26:09.858Z,14.90
2018-05-03T10:28:36.304Z,14.90
2018-05-03T10:31:03.499Z,15.00
2018-05-03T10:33:30.020Z,15.00
2018-05-03T10:35:56.540Z,15.00
2018-05-03T10:38:22.929Z,15.10
2018-05-03T10:40:50.076Z,14.90
2018-05-03T10:43:16.539Z,14.90
2018-05-03T10:45:42.941Z,14.70
2018-05-03T10:48:10.084Z,14.60
2018-05-03T10:50:37.236Z,14.70
2018-05-03T10:53:03.673Z,14.70
2018-05-03T10:55:30.820Z,15.10
2018-05-03T10:57:58.054Z,15.00
2018-05-03T11:00:24.553Z,15.00
2018-05-03T11:02:50.973Z,15.00
2018-05-03T11:05:17.488Z,14.90
2018-05-03T11:07:43.948Z,15.00
2018-05-03T11:10:10.376Z,15.10
2018-05-03T11:12:36.873Z,15.10
2018-05-03T11:15:03.308Z,15.10
2018-05-03T11:17:29.705Z,15.20
2018-05-03T11:19:56.892Z,15.40
2018-05-03T11:22:23.321Z,15.40
2018-05-03T11:24:49.734Z,15.50
2018-05-03T11:27:16.127Z,15.40
2018-05-03T11:29:42.528Z,15.40
2018-05-03T11:32:09.009Z,15.50
2018-05-03T11:34:35.468Z,15.60
2018-05-03T11:37:02.055Z,15.70
2018-05-03T11:39:29.410Z,15.70
2018-05-03T11:41:55.812Z,15.50
2018-05-03T11:44:22.235Z,15.70
2018-05-03T11:46:48.731Z,15.70
2018-05-03T11:49:15.201Z,15.90
2018-05-03T11:51:41.656Z,16.00
2018-05-03T11:54:08.076Z,15.90
2018-05-03T11:56:34.512Z,15.90
2018-05-03T11:59:00.899Z,16.10
2018-05-03T12:01:28.095Z,15.90
2018-05-03T12:03:54.563Z,15.90
2018-05-03T12:06:21.071Z,16.00
2018-05-03T12:08:48.161Z,16.20
2018-05-03T12:11:14.653Z,16.20
2018-05-03T12:13:41.112Z,16.10
2018-05-03T12:16:08.307Z,16.30
2018-05-03T12:18:34.713Z,16.20
2018-05-03T12:21:01.180Z,16.40
2018-05-03T12:23:27.602Z,16.40
2018-05-03T12:25:54.037Z,16.40
2018-05-03T12:28:20.508Z,16.30
2018-05-03T12:30:46.930Z,16.30
2018-05-03T12:33:13.432Z,16.40
2018-05-03T12:35:39.822Z,16.40
2018-05-03T12:38:06.257Z,16.50
2018-05-03T12:40:32.631Z,16.60
2018-05-03T12:42:59.056Z,16.50
2018-05-03T12:45:25.566Z,16.60
2018-05-03T12:47:51.968Z,16.60
2018-05-03T12:50:18.400Z,16.60
2018-05-03T12:52:45.547Z,16.70
2018-05-03T12:55:11.937Z,16.80
2018-05-03T12:57:38.351Z,16.80
2018-05-03T13:00:04.789Z,16.80
2018-05-03T13:02:31.171Z,16.80
2018-05-03T13:04:57.545Z,16.90
2018-05-03T13:07:30.941Z,16.80
2018-05-03T13:09:57.388Z,16.90
2018-05-03T13:12:23.776Z,17.10
2018-05-03T13:14:50.256Z,17.30
2018-05-03T13:17:16.687Z,17.30
2018-05-03T13:19:43.056Z,17.40
2018-05-03T13:22:09.529Z,17.50
2018-05-03T13:24:36.008Z,17.30
2018-05-03T13:27:02.527Z,17.30
2018-05-03T13:29:29.628Z,17.40
2018-05-03T13:31:56.817Z,17.50
2018-05-03T13:34:23.245Z,17.50
2018-05-03T13:36:49.638Z,17.50
2018-05-03T13:39:16.806Z,17.50
2018-05-03T13:41:43.258Z,17.40
2018-05-03T13:44:09.679Z,17.30
2018-05-03T13:46:36.104Z,17.30
2018-05-03T13:49:02.538Z,17.40
2018-05-03T13:51:28.955Z,17.50
2018-05-03T13:53:55.467Z,17.50
2018-05-03T13:56:21.927Z,17.60
2018-05-03T13:58:48.359Z,17.60
2018-05-03T14:01:15.561Z,17.50
2018-05-03T14:03:41.953Z,17.50
2018-05-03T14:06:08.607Z,17.60
2018-05-03T14:08:35.073Z,17.70
2018-05-03T14:11:01.514Z,17.70
2018-05-03T14:13:27.965Z,17.80
2018-05-03T14:15:55.120Z,17.80
2018-05-03T14:18:22.293Z,18.00
2018-05-03T14:20:49.578Z,18.10
2018-05-03T14:23:16.617Z,18.20
2018-05-03T14:25:43.060Z,18.20
2018-05-03T14:28:09.459Z,18.10
2018-05-03T14:30:35.904Z,18.30
2018-05-03T14:33:02.290Z,18.30
2018-05-03T14:35:29.459Z,18.20
2018-05-03T14:37:55.843Z,18.20
2018-05-03T14:40:22.274Z,18.30
2018-05-03T14:42:48.732Z,18.20
2018-05-03T14:45:15.163Z,18.30
2018-05-03T14:47:41.681Z,18.20
2018-05-03T14:50:08.812Z,18.40
2018-05-03T14:52:35.266Z,18.40
2018-05-03T14:55:01.700Z,18.30
2018-05-03T14:57:28.882Z,18.20
2018-05-03T14:59:55.253Z,18.10
2018-05-03T15:02:21.675Z,18.10
2018-05-03T15:04:48.080Z,18.00
2018-05-03T15:07:14.848Z,18.10
2018-05-03T15:09:41.278Z,18.20
2018-05-03T15:12:07.679Z,18.00
2018-05-03T15:14:34.109Z,18.00
2018-05-03T15:17:00.491Z,18.10
2018-05-03T15:19:26.884Z,18.10
2018-05-03T15:21:54.000Z,18.20
2018-05-03T15:24:21.147Z,18.10
2018-05-03T15:26:47.535Z,18.10
2018-05-03T15:29:14.735Z,18.10
2018-05-03T15:31:41.191Z,18.10
2018-05-03T15:34:07.620Z,18.00
2018-05-03T15:36:34.019Z,18.00
2018-05-03T15:39:00.453Z,17.90
2018-05-03T15:41:26.924Z,17.90
2018-05-03T15:43:53.356Z,18.00
2018-05-03T15:46:19.765Z,18.00
2018-05-03T15:48:46.189Z,18.00
2018-05-03T15:51:12.606Z,18.00
2018-05-03T15:53:39.018Z,18.20
2018-05-03T15:56:05.449Z,18.20
2018-05-03T15:58:32.614Z,18.20
2018-05-03T16:00:59.045Z,18.20
2018-05-03T16:03:25.452Z,18.10
2018-05-03T16:05:51.903Z,18.10
2018-05-03T16:08:18.321Z,18.20
2018-05-03T16:10:44.766Z,18.20
2018-05-03T16:13:12.015Z,18.20
2018-05-03T16:15:38.430Z,18.20
2018-05-03T16:18:04.852Z,18.20
2018-05-03T16:20:31.333Z,18.30
2018-05-03T16:22:57.706Z,18.20
2018-05-03T16:25:24.122Z,18.20
2018-05-03T16:27:50.530Z,18.20
2018-05-03T16:30:17.022Z,18.20
2018-05-03T16:32:43.437Z,18.20
2018-05-03T16:35:09.828Z,18.20
2018-05-03T16:37:36.228Z,18.20
2018-05-03T16:40:03.393Z,18.10
2018-05-03T16:42:29.795Z,18.10
2018-05-03T16:44:56.234Z,18.10
2018-05-03T16:47:22.676Z,18.20
2018-05-03T16:49:50.789Z,18.20
2018-05-03T16:52:17.338Z,18.20
2018-05-03T16:54:43.761Z,18.20
2018-05-03T16:57:10.189Z,18.20
2018-05-03T16:59:36.627Z,18.20
2018-05-03T17:02:03.118Z,18.20
2018-05-03T17:04:29.537Z,18.10
2018-05-03T17:06:56.788Z,18.10
2018-05-03T17:09:23.212Z,18.10
2018-05-03T17:11:49.607Z,18.00
2018-05-03T17:14:16.059Z,18.00
2018-05-03T17:16:42.562Z,18.00
2018-05-03T17:19:09.021Z,18.00
2018-05-03T17:21:35.405Z,18.00
2018-05-03T17:24:02.616Z,18.00
2018-05-03T17:26:29.841Z,18.00
2018-05-03T17:28:56.347Z,18.00
2018-05-03T17:31:22.805Z,18.00
2018-05-03T17:33:49.332Z,18.00
2018-05-03T17:36:15.735Z,18.00
2018-05-03T17:38:42.202Z,18.00
2018-05-03T17:41:08.680Z,18.10
2018-05-03T17:43:35.087Z,18.10
2018-05-03T17:46:01.546Z,18.00
2018-05-03T17:48:28.043Z,18.00
2018-05-03T17:50:54.491Z,18.00
2018-05-03T17:53:20.902Z,18.00
2018-05-03T17:55:47.387Z,17.90
2018-05-03T17:58:14.553Z,17.90
2018-05-03T18:00:41.000Z,17.90
2018-05-03T18:03:07.389Z,17.90
2018-05-03T18:05:34.607Z,17.90
2018-05-03T18:08:01.034Z,17.90
2018-05-03T18:10:27.414Z,17.90
2018-05-03T18:12:53.914Z,17.90
2018-05-03T18:15:20.338Z,17.90
2018-05-03T18:17:46.717Z,17.90
2018-05-03T18:20:13.213Z,17.90
2018-05-03T18:22:40.493Z,17.90
2018-05-03T18:25:06.937Z,17.90
2018-05-03T18:27:33.489Z,17.90
2018-05-03T18:29:59.908Z,17.80
2018-05-03T18:32:26.371Z,17.80
2018-05-03T18:34:52.777Z,17.80
2018-05-03T18:37:19.202Z,17.70
2018-05-03T18:39:46.626Z,17.70
2018-05-03T18:42:13.107Z,17.80
2018-05-03T18:44:39.537Z,17.70
2018-05-03T18:47:05.999Z,17.80
2018-05-03T18:49:32.580Z,17.70
2018-05-03T18:51:59.111Z,17.70
2018-05-03T18:54:26.267Z,17.70
2018-05-03T18:56:52.721Z,17.60
2018-05-03T18:59:19.253Z,17.60
2018-05-03T19:01:45.730Z,17.70
2018-05-03T19:04:12.154Z,17.70
2018-05-03T19:06:39.384Z,17.70
2018-05-03T19:09:05.823Z,17.60
2018-05-03T19:11:32.312Z,17.60
2018-05-03T19:13:59.468Z,17.60
2018-05-03T19:16:25.924Z,17.60
2018-05-03T19:18:52.583Z,17.60
2018-05-03T19:21:19.128Z,17.60
2018-05-03T19:23:46.314Z,17.40
2018-05-03T19:26:12.737Z,17.40
2018-05-03T19:28:39.153Z,17.30
2018-05-03T19:31:05.609Z,17.30
2018-05-03T19:33:32.042Z,17.30
2018-05-03T19:35:58.472Z,17.20
2018-05-03T19:38:25.827Z,17.30
2018-05-03T19:40:52.328Z,17.20
2018-05-03T19:43:18.714Z,17.20
2018-05-03T19:45:45.138Z,17.20
2018-05-03T19:48:12.316Z,17.20
2018-05-03T19:50:38.845Z,17.20
2018-05-03T19:53:05.371Z,17.20
2018-05-03T19:55:31.820Z,17.10
2018-05-03T19:57:58.327Z,17.00
2018-05-03T20:00:24.768Z,17.00
2018-05-03T20:02:51.251Z,16.90
2018-05-03T20:05:17.664Z,16.80
2018-05-03T20:07:44.881Z,16.80
2018-05-03T20:10:11.372Z,16.80
2018-05-03T20:12:37.874Z,16.80
2018-05-03T20:15:04.315Z,16.70
2018-05-03T20:17:30.761Z,16.70
2018-05-03T20:19:57.266Z,16.70
2018-05-03T20:22:23.910Z,16.70
2018-05-03T20:24:51.166Z,16.60
2018-05-03T20:27:17.598Z,16.60
2018-05-03T20:29:44.822Z,16.60
2018-05-03T20:32:11.297Z,16.60
2018-05-03T20:34:37.759Z,16.60
2018-05-03T20:37:04.232Z,16.70
2018-05-03T20:39:30.666Z,16.60
2018-05-03T20:41:57.133Z,16.50
2018-05-03T20:44:23.552Z,16.50
2018-05-03T20:46:50.058Z,16.40
2018-05-03T20:49:16.565Z,16.40
2018-05-03T20:51:43.026Z,16.40
2018-05-03T20:54:09.551Z,16.40
2018-05-03T20:56:36.073Z,16.40
2018-05-03T20:59:02.492Z,16.30
2018-05-03T21:01:29.561Z,16.20
2018-05-03T21:03:55.984Z,16.20
2018-05-03T21:06:22.358Z,16.20
2018-05-03T21:08:48.823Z,16.20
2018-05-03T21:11:15.349Z,16.10
2018-05-03T21:13:42.161Z,16.00
2018-05-03T21:16:09.340Z,16.00
2018-05-03T21:18:36.980Z,16.00
2018-05-03T21:21:03.496Z,15.90
2018-05-03T21:23:30.683Z,15.90
2018-05-03T21:25:57.113Z,15.90
2018-05-03T21:28:23.529Z,15.90
2018-05-03T21:30:50.070Z,15.90
2018-05-03T21:33:17.336Z,15.90
2018-05-03T21:35:43.737Z,15.80
2018-05-03T21:38:10.135Z,15.80
2018-05-03T21:40:36.570Z,15.90
2018-05-03T21:43:03.005Z,15.80
2018-05-03T21:45:30.198Z,15.70
2018-05-03T21:47:56.588Z,15.70
2018-05-03T21:50:23.012Z,15.70
2018-05-03T21:52:49.462Z,15.70
2018-05-03T21:55:16.636Z,15.60
2018-05-03T21:57:43.065Z,15.60
2018-05-03T22:00:09.489Z,15.60
2018-05-03T22:02:35.900Z,15.70
2018-05-03T22:05:03.129Z,15.70
2018-05-03T22:07:29.697Z,15.70
2018-05-03T22:09:56.093Z,15.70
2018-05-03T22:12:22.504Z,15.70
2018-05-03T22:14:49.025Z,15.70
2018-05-03T22:17:15.444Z,15.60
2018-05-03T22:19:42.632Z,15.70
2018-05-03T22:22:09.112Z,15.70
2018-05-03T22:24:35.597Z,15.70
2018-05-03T22:27:02.041Z,15.70
2018-05-03T22:29:28.574Z,15.70
2018-05-03T22:31:55.070Z,15.70
2018-05-03T22:34:21.549Z,15.60
2018-05-03T22:36:48.024Z,15.60
2018-05-03T22:39:14.432Z,15.70
2018-05-03T22:41:41.631Z,15.80
2018-05-03T22:44:08.039Z,15.80
2018-05-03T22:46:34.454Z,15.70
2018-05-03T22:49:00.864Z,15.60
2018-05-03T22:51:28.009Z,15.60
2018-05-03T22:53:55.192Z,15.60
2018-05-03T22:56:21.644Z,15.60
2018-05-03T22:58:48.105Z,15.60
2018-05-03T23:01:14.600Z,15.60
2018-05-03T23:03:41.065Z,15.70
2018-05-03T23:06:07.460Z,15.70
2018-05-03T23:08:33.858Z,15.60
2018-05-03T23:11:00.221Z,15.60
2018-05-03T23:13:26.613Z,15.60
2018-05-03T23:15:52.989Z,15.50
2018-05-03T23:18:19.379Z,15.50
2018-05-03T23:20:45.749Z,15.50
2018-05-03T23:23:12.155Z,15.50
2018-05-03T23:25:38.525Z,15.50
2018-05-03T23:28:04.923Z,15.40
2018-05-03T23:30:31.366Z,15.40
2018-05-03T23:32:57.673Z,15.40
2018-05-03T23:35:24.835Z,15.30
2018-05-03T23:37:51.248Z,15.30
2018-05-03T23:40:18.417Z,15.30
2018-05-03T23:42:44.821Z,15.30
2018-05-03T23:45:11.218Z,15.30
2018-05-03T23:47:37.648Z,15.20
2018-05-03T23:50:04.058Z,15.20
2018-05-03T23:52:30.472Z,15.20
2018-05-03T23:54:56.848Z,15.20
2018-05-03T23:57:23.282Z,15.20
2018-05-03T23:59:50.434Z,15.30
